Flight Track Log - Related Links

Times and Time Zones

All times are in EDT time to prevent confusion due to time zone crossing. See the ACA288 flight status page for this flight to view local times or setup timezone preferences in your user account.

Time Position Orientation Groundspeed Altitude Reporting Facility
EDT Latitude Longitude Course Direction KTS MPH feet Rate Location/Type
Mon 10:12:00 AM 60.3271 -134.6542 141° Southeast  Level FlightAware Approximate
Mon 10:13:00 AM 60.2374 -134.5062 140° Southeast  Level FlightAware Approximate
Mon 10:14:00 AM 60.1483 -134.3572 140° Southeast  Level FlightAware Approximate
Mon 10:15:00 AM 60.0671 -134.2151 139° Southeast  Level FlightAware Approximate
Mon 10:16:00 AM 59.9857 -134.0738 139° Southeast  Level FlightAware Approximate
Mon 10:17:00 AM 59.9042 -133.9331 139° Southeast  Level FlightAware Approximate
Mon 10:18:00 AM 59.8226 -133.7931 139° Southeast  Level FlightAware Approximate
Mon 10:19:00 AM 59.7408 -133.6538 139° Southeast  Level FlightAware Approximate
Mon 10:20:00 AM 59.6588 -133.5152 139° Southeast  Level FlightAware Approximate
Mon 10:21:00 AM 59.5767 -133.3772 140° Southeast  Level FlightAware Approximate
Mon 10:22:00 AM 59.4945 -133.2400 140° Southeast  Level FlightAware Approximate
Mon 10:23:00 AM 59.4121 -133.1034 140° Southeast  Level FlightAware Approximate
Mon 10:24:00 AM 59.3296 -132.9674 140° Southeast  Level FlightAware Approximate
Mon 10:25:00 AM 59.2469 -132.8322 140° Southeast  Level FlightAware Approximate
Mon 10:26:00 AM 59.1641 -132.6975 140° Southeast  Level FlightAware Approximate
Mon 10:27:00 AM 59.0811 -132.5636 140° Southeast  Level FlightAware Approximate
Mon 10:28:00 AM 58.9963 -132.4279 143° Southeast  Level FlightAware Approximate
Mon 10:29:00 AM 58.9102 -132.3025 143° Southeast  Level FlightAware Approximate
Mon 10:30:00 AM 58.8239 -132.1777 143° Southeast  Level FlightAware Approximate
Mon 10:31:00 AM 58.7375 -132.0535 143° Southeast  Level FlightAware Approximate
Mon 10:32:00 AM 58.6510 -131.9299 143° Southeast  Level FlightAware Approximate
Mon 10:33:00 AM 58.5644 -131.8069 143° Southeast  Level FlightAware Approximate
Mon 10:34:00 AM 58.4793 -131.6867 144° Southeast  Level FlightAware Approximate
Mon 10:35:00 AM 58.3940 -131.5672 144° Southeast  Level FlightAware Approximate
Mon 10:36:00 AM 58.3087 -131.4482 144° Southeast  Level FlightAware Approximate
Mon 10:37:00 AM 58.2232 -131.3299 144° Southeast  Level FlightAware Approximate
Mon 10:38:00 AM 58.1376 -131.2120 144° Southeast  Level FlightAware Approximate
Mon 10:39:00 AM 58.0520 -131.0948 144° Southeast  Level FlightAware Approximate
Mon 10:40:00 AM 57.9662 -130.9781 144° Southeast  Level FlightAware Approximate
Mon 10:41:00 AM 57.8803 -130.8620 144° Southeast  Level FlightAware Approximate
Mon 10:42:00 AM 57.7943 -130.7464 144° Southeast  Level FlightAware Approximate
Mon 10:43:00 AM 57.7082 -130.6314 144° Southeast  Level FlightAware Approximate
Mon 10:44:00 AM 57.6220 -130.5169 145° Southeast  Level FlightAware Approximate
Mon 10:45:00 AM 57.5357 -130.4029 145° Southeast  Level FlightAware Approximate
Mon 10:46:00 AM 57.4493 -130.2895 145° Southeast  Level FlightAware Approximate
Mon 10:47:00 AM 57.3627 -130.1767 145° Southeast  Level FlightAware Approximate
Mon 10:48:00 AM 57.2761 -130.0643 145° Southeast  Level FlightAware Approximate
Mon 10:49:00 AM 57.1894 -129.9525 145° Southeast  Level FlightAware Approximate
Mon 10:50:00 AM 57.1026 -129.8413 145° Southeast  Level FlightAware Approximate
Mon 10:51:00 AM 57.0157 -129.7305 145° Southeast  Level FlightAware Approximate
Mon 10:51:24 AM 57.1000 -129.9333 145° Southeast 390 449 35,000  Level Vancouver Center
Mon 10:52:00 AM 56.9287 -129.6203 145° Southeast  Level FlightAware Approximate
Mon 10:52:24 AM 57.0167 -129.8000 139° Southeast 390 449 35,000  Level Vancouver Center
Mon 10:53:00 AM 56.8416 -129.5105 145° Southeast  Level FlightAware Approximate
Mon 10:53:24 AM 56.9167 -129.6500 141° Southeast 400 460 35,000  Level Vancouver Center
Mon 10:54:00 AM 56.7545 -129.4009 145° Southeast  Level FlightAware Approximate
Mon 10:55:00 AM 56.6682 -129.2897 145° Southeast  Level FlightAware Approximate
Mon 10:56:00 AM 56.5817 -129.1790 145° Southeast  Level FlightAware Approximate
Mon 10:56:24 AM 56.6667 -129.3500 147° Southeast 380 437 35,000  Level Vancouver Center
Mon 10:57:00 AM 56.4952 -129.0688 145° Southeast  Level FlightAware Approximate
Mon 10:57:24 AM 56.5667 -129.2333 147° Southeast 380 437 35,000  Level Vancouver Center
Mon 11:00:00 AM 56.4214 -129.0891 151° Southeast  Level Estimated
Mon 11:03:32 AM 56.0167 -128.7167 152° Southeast 360 414 35,000  Level Vancouver Center
Mon 11:04:32 AM 55.9167 -128.6500 160° South 380 437 35,500 600 Climbing Vancouver Center
Mon 11:05:32 AM 55.8333 -128.5500 146° Southeast 370 426 36,200 750 Climbing Vancouver Center
Mon 11:06:32 AM 55.7500 -128.4500 146° Southeast 380 437 37,000 400 Climbing Vancouver Center
Mon 11:07:00 AM 55.7841 -128.4707 151° Southeast  Level Estimated
Mon 11:07:32 AM 55.6500 -128.3833 159° South 370 426 37,000  Level Vancouver Center
Mon 11:08:00 AM 55.6928 -128.3841 152° Southeast  Level Estimated
Mon 11:08:32 AM 55.5500 -128.2833 150° Southeast 400 460 37,000  Level Vancouver Center
Mon 11:09:32 AM 55.4500 -128.2000 155° Southeast 380 437 37,000  Level Vancouver Center
Mon 11:10:32 AM 55.3500 -128.1167 155° Southeast 380 437 37,000  Level Vancouver Center
Mon 11:12:00 AM 55.2135 -127.9998 154° Southeast  Level FlightAware Approximate
Mon 11:12:32 AM 55.1833 -127.9500 154° Southeast 370 426 37,000  Level Vancouver Center
Mon 11:13:32 AM 55.0833 -127.8500 150° Southeast 380 437 37,000  Level Vancouver Center
Mon 11:14:32 AM 54.9833 -127.7833 159° South 380 437 37,000  Level Vancouver Center
Mon 11:15:32 AM 54.8833 -127.6833 150° Southeast 390 449 37,000  Level Vancouver Center
Mon 11:16:32 AM 54.7833 -127.6167 159° South 380 437 37,000  Level Vancouver Center
Mon 11:17:32 AM 54.7000 -127.5167 145° Southeast 380 437 37,000  Level Vancouver Center
Mon 11:18:32 AM 54.6000 -127.4333 154° Southeast 400 460 37,000  Level Vancouver Center
Mon 11:19:32 AM 54.5000 -127.3667 159° South 390 449 37,000  Level Vancouver Center
Mon 11:21:00 AM 54.3621 -127.2573 155° Southeast  Level FlightAware Approximate
Mon 11:21:32 AM 54.3167 -127.2000 155° Southeast 370 426 37,000  Level Vancouver Center
Mon 11:22:32 AM 54.2167 -127.1000 150° Southeast 380 437 37,000  Level Vancouver Center
Mon 11:23:32 AM 54.1333 -127.0500 161° South 380 437 37,000  Level Vancouver Center
Mon 11:24:32 AM 54.0167 -126.9500 153° Southeast 390 449 37,000  Level Vancouver Center
Mon 11:25:32 AM 53.9333 -126.8667 150° Southeast 400 460 37,000  Level Vancouver Center
Mon 11:26:32 AM 53.8333 -126.7667 149° Southeast 400 460 37,000  Level Vancouver Center
Mon 11:28:00 AM 53.6932 -126.6713 158° South  Level FlightAware Approximate
Mon 11:28:32 AM 53.6333 -126.6167 158° South 400 460 37,000  Level Vancouver Center
Mon 11:29:32 AM 53.5333 -126.5167 149° Southeast 400 460 37,000  Level Vancouver Center
Mon 11:30:32 AM 53.4333 -126.4667 163° South 400 460 37,000  Level Vancouver Center
Mon 11:31:32 AM 53.3333 -126.3667 149° Southeast 400 460 37,000  Level Vancouver Center
Mon 11:32:32 AM 53.2333 -126.2833 153° Southeast 400 460 37,000  Level Vancouver Center
Mon 11:33:32 AM 53.1333 -126.1833 149° Southeast 400 460 37,000  Level Vancouver Center
Mon 11:34:32 AM 53.0333 -126.1333 163° South 400 460 37,000  Level Vancouver Center
Mon 11:35:32 AM 52.9333 -126.0333 149° Southeast 400 460 37,000  Level Vancouver Center
Mon 11:36:32 AM 52.8500 -125.9500 149° Southeast 400 460 37,000  Level Vancouver Center
Mon 11:37:32 AM 52.7500 -125.9000 163° South 400 460 37,000  Level Vancouver Center
Mon 11:38:32 AM 52.6333 -125.8000 153° Southeast 410 472 37,000  Level Vancouver Center
Mon 11:39:32 AM 52.5333 -125.7167 153° Southeast 410 472 37,000  Level Vancouver Center
Mon 11:40:32 AM 52.4333 -125.6333 153° Southeast 410 472 37,000  Level Vancouver Center
Mon 11:41:32 AM 52.3333 -125.5667 158° South 410 472 37,000  Level Vancouver Center
Mon 11:42:32 AM 52.2167 -125.4833 156° South 410 472 37,000  Level Vancouver Center
Mon 11:43:32 AM 52.1167 -125.4000 153° Southeast 410 472 37,000  Level Vancouver Center
Mon 11:44:32 AM 52.0167 -125.3167 153° Southeast 410 472 37,000  Level Vancouver Center
Mon 11:45:32 AM 51.9167 -125.2667 163° South 410 472 37,000  Level Vancouver Center
Mon 11:46:32 AM 51.8167 -125.1833 153° Southeast 410 472 37,000  Level Vancouver Center
Mon 11:47:32 AM 51.7000 -125.0833 152° Southeast 410 472 37,000  Level Vancouver Center
Mon 11:48:32 AM 51.6000 -125.0000 153° Southeast 410 472 37,000  Level Vancouver Center
Mon 11:50:00 AM 51.4598 -124.9097 158° South  Level FlightAware Approximate
Mon 11:50:32 AM 51.3833 -124.8667 158° South 420 483 37,000  Level Vancouver Center
Mon 11:51:32 AM 51.2833 -124.7833 152° Southeast 410 472 37,000  Level Vancouver Center
Mon 11:52:32 AM 51.1833 -124.7000 152° Southeast 410 472 37,000  Level Vancouver Center
Mon 11:53:32 AM 51.0667 -124.6167 156° South 420 483 37,000  Level Vancouver Center
Mon 11:55:32 AM 50.8667 -124.4833 157° South 410 472 37,000  Level Vancouver Center
Mon 11:56:32 AM 50.7500 -124.4000 156° South 410 472 37,000  Level Vancouver Center
Mon 11:57:32 AM 50.6500 -124.3333 157° South 410 472 37,000 -100 Level Vancouver Center
Mon 11:59:00 AM 50.5186 -124.2155 152° Southeast  Level FlightAware Approximate
Mon 11:59:32 AM 50.4500 -124.2000 152° Southeast 400 460 36,700  Level Vancouver Center
Mon 12:00:32 PM 50.3500 -124.1167 152° Southeast 400 460 34,600 -2,200 Descending Vancouver Center
Mon 12:01:32 PM 50.2500 -124.0667 162° South 390 449 32,300 -2,400 Descending Vancouver Center
Mon 12:02:32 PM 50.1500 -123.9833 152° Southeast 390 449 29,800 -2,367 Descending Vancouver Center
Mon 12:04:00 PM 50.0258 -123.8447 157° South  Level FlightAware Approximate
Mon 12:04:32 PM 49.9667 -123.8500 157° South 370 426 25,200  Level Vancouver Center
Mon 12:05:32 PM 49.8667 -123.8000 162° South 360 414 23,100 -2,100 Descending Vancouver Center
Mon 12:06:32 PM 49.7833 -123.7167 147° Southeast 350 403 21,000 -2,150 Descending Vancouver Center
Mon 12:07:32 PM 49.7000 -123.6667 159° South 340 391 18,800 -2,050 Descending Vancouver Center
Mon 12:08:32 PM 49.6333 -123.6000 147° Southeast 320 368 16,900 -1,950 Descending Vancouver Center
Mon 12:09:32 PM 49.5500 -123.5500 159° South 310 357 14,900 -1,700 Descending Vancouver Center
Mon 12:10:32 PM 49.4833 -123.4833 147° Southeast 290 334 13,500 -1,500 Descending Vancouver Center
Mon 12:11:32 PM 49.4167 -123.4167 147° Southeast 280 322 11,900 -1,750 Descending Vancouver Center
Mon 12:12:32 PM 49.3500 -123.3667 154° Southeast 270 311 10,000 -1,767 Descending Vancouver Center
Mon 12:14:32 PM 49.2500 -123.2167 136° Southeast 280 322 6,600 -1,533 Descending Vancouver Center
Mon 12:15:32 PM 49.2500 -123.0833 90° East 270 311 5,400 -1,050 Descending Vancouver Center
Mon 12:16:32 PM 49.2333 -122.9833 104° East 250 288 4,500 -900 Descending Vancouver Center
Mon 12:17:32 PM 49.2000 -122.9000 121° Southeast 220 253 3,600 -900 Descending Vancouver Center

Login

Don't have an account? Register now (free) for customized features, flight alerts, and more!